UAE11M OMDB-LSZH
Flight info
| Callsign | UAE11M |
|---|---|
| Flight time | N/A |
| Altitude | 37000 |
| Route | ANVIX L223 TARDI N629 BOTAM Y855 LAKLU/N0489F360 Q204 NALKI G652 TOKRA DCT ALROK DCT BOSOB/N0490F380 DCT ITRUX Y511 PMA Z712 WEJ L677 CVO L617 TANSA UL613 AMAXI/N0484F400 UL613 XANIS DCT DIMIS DCT VRANA DCT ELTIB DCT NEMEK DCT ADOMO DCT GIMIX DCT ERKIR DCT KPT L856 NEGRA |
| Aircraft | A388/J-SADE2E3FGHIJ3J4J5M1RWXY/LB1D1 |
Departure
| Time | N/A |
|---|---|
| Airport | Dubai International Airport (OMDB) |
Arrival
| Time | 2026-05-05 12:58 |
|---|---|
| Airport | Zürich Airport (LSZH) |
| Time | Latitude | Longitude | Altitude | Speed | Heading |
|---|---|---|---|---|---|
| 2026-05-05 11:36 | 43.78090 | 17.50224 | 38080 ft | 455 kts | 314° |
| 2026-05-05 11:37 | 43.82686 | 17.44174 | 38083 ft | 456 kts | 313° |
| 2026-05-05 11:37 | 43.87269 | 17.38058 | 38089 ft | 457 kts | 313° |
| 2026-05-05 11:38 | 43.91846 | 17.31955 | 38085 ft | 457 kts | 313° |
| 2026-05-05 11:38 | 43.96444 | 17.25831 | 38087 ft | 457 kts | 313° |
| 2026-05-05 11:39 | 44.01031 | 17.19710 | 38065 ft | 458 kts | 313° |
| 2026-05-05 11:39 | 44.05594 | 17.13605 | 38070 ft | 458 kts | 313° |
| 2026-05-05 11:40 | 44.10210 | 17.07410 | 38061 ft | 459 kts | 313° |
| 2026-05-05 11:40 | 44.14768 | 17.01276 | 38064 ft | 458 kts | 313° |
| 2026-05-05 11:41 | 44.19359 | 16.95087 | 38054 ft | 459 kts | 313° |
| 2026-05-05 11:41 | 44.23949 | 16.88883 | 38047 ft | 459 kts | 313° |
| 2026-05-05 11:42 | 44.28541 | 16.82662 | 38053 ft | 460 kts | 313° |
| 2026-05-05 11:42 | 44.33095 | 16.76478 | 38047 ft | 460 kts | 313° |
| 2026-05-05 11:43 | 44.37697 | 16.70217 | 38048 ft | 461 kts | 313° |
| 2026-05-05 11:43 | 44.42287 | 16.63955 | 38033 ft | 461 kts | 313° |
| 2026-05-05 11:44 | 44.46884 | 16.57670 | 38038 ft | 462 kts | 313° |
| 2026-05-05 11:44 | 44.51485 | 16.51364 | 38034 ft | 462 kts | 313° |
| 2026-05-05 11:45 | 44.56076 | 16.45059 | 38046 ft | 462 kts | 312° |
| 2026-05-05 11:45 | 44.60625 | 16.38795 | 38020 ft | 463 kts | 313° |
| 2026-05-05 11:46 | 44.65223 | 16.32449 | 38027 ft | 464 kts | 312° |
| 2026-05-05 11:46 | 44.69824 | 16.26084 | 38027 ft | 464 kts | 312° |
| 2026-05-05 11:47 | 44.74426 | 16.19705 | 38033 ft | 464 kts | 312° |
| 2026-05-05 11:47 | 44.79018 | 16.13322 | 38030 ft | 465 kts | 312° |
| 2026-05-05 11:48 | 44.85916 | 16.03707 | 38040 ft | 465 kts | 312° |
| 2026-05-05 11:48 | 44.90525 | 15.97263 | 38041 ft | 466 kts | 312° |
| 2026-05-05 11:49 | 44.95117 | 15.90826 | 38040 ft | 466 kts | 312° |
| 2026-05-05 11:49 | 44.99719 | 15.84359 | 38021 ft | 466 kts | 312° |
| 2026-05-05 11:50 | 45.04316 | 15.77885 | 38021 ft | 466 kts | 312° |
| 2026-05-05 11:50 | 45.08908 | 15.71402 | 38027 ft | 467 kts | 312° |
| 2026-05-05 11:51 | 45.13473 | 15.64942 | 38022 ft | 467 kts | 312° |
| 2026-05-05 11:51 | 45.18068 | 15.58423 | 38024 ft | 467 kts | 312° |
| 2026-05-05 11:52 | 45.22660 | 15.51892 | 38033 ft | 467 kts | 312° |
| 2026-05-05 11:52 | 45.27250 | 15.45350 | 38031 ft | 467 kts | 312° |
| 2026-05-05 11:53 | 45.31839 | 15.38792 | 38029 ft | 470 kts | 312° |
| 2026-05-05 11:53 | 45.36462 | 15.32168 | 38049 ft | 472 kts | 312° |
| 2026-05-05 11:54 | 45.41079 | 15.25540 | 38048 ft | 471 kts | 311° |
| 2026-05-05 11:54 | 45.45653 | 15.18958 | 38052 ft | 470 kts | 311° |
| 2026-05-05 11:55 | 45.50246 | 15.12330 | 38047 ft | 469 kts | 311° |
| 2026-05-05 11:55 | 45.54831 | 15.05698 | 38049 ft | 469 kts | 311° |
| 2026-05-05 11:56 | 45.59405 | 14.99066 | 38038 ft | 469 kts | 311° |
| 2026-05-05 11:56 | 45.63954 | 14.92453 | 38041 ft | 469 kts | 311° |
| 2026-05-05 11:57 | 45.68536 | 14.85776 | 38050 ft | 470 kts | 311° |
| 2026-05-05 11:57 | 45.73114 | 14.79089 | 38046 ft | 470 kts | 311° |
| 2026-05-05 11:58 | 45.77687 | 14.72392 | 38034 ft | 470 kts | 311° |
| 2026-05-05 11:58 | 45.82251 | 14.65692 | 38034 ft | 469 kts | 311° |
| 2026-05-05 11:59 | 45.86809 | 14.58982 | 38035 ft | 469 kts | 311° |
| 2026-05-05 11:59 | 45.91376 | 14.52245 | 38036 ft | 471 kts | 311° |
| 2026-05-05 12:00 | 45.95919 | 14.45523 | 38059 ft | 472 kts | 311° |
| 2026-05-05 12:00 | 46.00523 | 14.38698 | 38074 ft | 473 kts | 311° |
| 2026-05-05 12:01 | 46.05058 | 14.31956 | 38062 ft | 471 kts | 311° |
| 2026-05-05 12:01 | 46.09611 | 14.25171 | 38041 ft | 470 kts | 311° |
| 2026-05-05 12:02 | 46.13388 | 14.19528 | 38041 ft | 470 kts | 311° |
| 2026-05-05 12:02 | 46.17918 | 14.12746 | 38031 ft | 469 kts | 311° |
| 2026-05-05 12:03 | 46.22436 | 14.05963 | 38014 ft | 469 kts | 310° |
| 2026-05-05 12:03 | 46.26956 | 13.99160 | 38015 ft | 468 kts | 310° |
| 2026-05-05 12:04 | 46.31468 | 13.92354 | 38005 ft | 468 kts | 310° |
| 2026-05-05 12:04 | 46.35964 | 13.85553 | 38000 ft | 467 kts | 310° |
| 2026-05-05 12:05 | 46.40423 | 13.78792 | 37990 ft | 467 kts | 310° |
| 2026-05-05 12:05 | 46.44908 | 13.71974 | 37993 ft | 467 kts | 310° |
| 2026-05-05 12:06 | 46.49390 | 13.65142 | 37981 ft | 467 kts | 310° |
| 2026-05-05 12:06 | 46.53865 | 13.58302 | 37984 ft | 467 kts | 310° |
| 2026-05-05 12:07 | 46.58328 | 13.51464 | 37987 ft | 465 kts | 310° |
| 2026-05-05 12:07 | 46.62788 | 13.44615 | 37976 ft | 466 kts | 310° |
| 2026-05-05 12:08 | 46.67222 | 13.37788 | 37971 ft | 467 kts | 310° |
| 2026-05-05 12:08 | 46.71675 | 13.30921 | 37951 ft | 465 kts | 310° |
| 2026-05-05 12:09 | 46.76110 | 13.24049 | 37950 ft | 465 kts | 309° |
| 2026-05-05 12:09 | 46.80551 | 13.17154 | 37945 ft | 467 kts | 310° |
| 2026-05-05 12:10 | 46.85004 | 13.10225 | 37932 ft | 469 kts | 309° |
| 2026-05-05 12:10 | 46.89473 | 13.03256 | 37913 ft | 470 kts | 309° |
| 2026-05-05 12:11 | 46.93948 | 12.96256 | 37932 ft | 471 kts | 309° |
| 2026-05-05 12:11 | 46.98403 | 12.89271 | 37942 ft | 473 kts | 309° |
| 2026-05-05 12:12 | 47.02876 | 12.82235 | 37879 ft | 470 kts | 309° |
| 2026-05-05 12:12 | 47.07331 | 12.75211 | 37941 ft | 473 kts | 309° |
| 2026-05-05 12:13 | 47.11815 | 12.68122 | 37895 ft | 475 kts | 309° |
| 2026-05-05 12:13 | 47.16316 | 12.60995 | 37867 ft | 475 kts | 309° |
| 2026-05-05 12:14 | 47.20803 | 12.53865 | 37840 ft | 473 kts | 309° |
| 2026-05-05 12:14 | 47.25288 | 12.46721 | 37854 ft | 474 kts | 309° |
| 2026-05-05 12:15 | 47.29763 | 12.39568 | 37899 ft | 481 kts | 309° |
| 2026-05-05 12:15 | 47.34317 | 12.32278 | 37857 ft | 483 kts | 309° |
| 2026-05-05 12:16 | 47.38819 | 12.25056 | 37842 ft | 475 kts | 309° |
| 2026-05-05 12:16 | 47.43295 | 12.17850 | 37821 ft | 476 kts | 309° |
| 2026-05-05 12:17 | 47.47784 | 12.10610 | 37821 ft | 478 kts | 309° |
| 2026-05-05 12:17 | 47.51848 | 12.03018 | 37805 ft | 471 kts | 297° |
| 2026-05-05 12:18 | 47.54503 | 11.94284 | 37790 ft | 463 kts | 283° |
| 2026-05-05 12:18 | 47.55834 | 11.84993 | 37789 ft | 460 kts | 278° |
| 2026-05-05 12:19 | 47.57080 | 11.75703 | 37774 ft | 459 kts | 278° |
| 2026-05-05 12:19 | 47.58302 | 11.66413 | 37780 ft | 459 kts | 278° |
| 2026-05-05 12:20 | 47.59504 | 11.57119 | 37765 ft | 460 kts | 278° |
| 2026-05-05 12:20 | 47.60697 | 11.47863 | 37771 ft | 460 kts | 278° |
| 2026-05-05 12:21 | 47.61890 | 11.38538 | 37785 ft | 461 kts | 278° |
| 2026-05-05 12:21 | 47.63070 | 11.29215 | 37797 ft | 462 kts | 277° |
| 2026-05-05 12:22 | 47.64251 | 11.19836 | 37785 ft | 462 kts | 277° |
| 2026-05-05 12:22 | 47.65425 | 11.10448 | 37804 ft | 463 kts | 277° |
| 2026-05-05 12:23 | 47.66586 | 11.01103 | 37805 ft | 463 kts | 277° |
| 2026-05-05 12:23 | 47.67742 | 10.91733 | 37818 ft | 464 kts | 277° |
| 2026-05-05 12:24 | 47.68214 | 10.82274 | 37654 ft | 456 kts | 263° |
| 2026-05-05 12:24 | 47.67949 | 10.77609 | 37351 ft | 453 kts | 262° |
| 2026-05-05 12:24 | 47.67682 | 10.72958 | 37001 ft | 453 kts | 262° |
| 2026-05-05 12:25 | 47.67421 | 10.68291 | 36665 ft | 453 kts | 262° |
| 2026-05-05 12:25 | 47.67163 | 10.63617 | 36316 ft | 454 kts | 262° |
| 2026-05-05 12:25 | 47.66908 | 10.58953 | 35988 ft | 455 kts | 262° |
| 2026-05-05 12:25 | 47.66651 | 10.54270 | 35655 ft | 455 kts | 262° |
| 2026-05-05 12:26 | 47.66392 | 10.49572 | 35353 ft | 458 kts | 262° |
| 2026-05-05 12:26 | 47.66130 | 10.44866 | 35035 ft | 459 kts | 262° |
| 2026-05-05 12:26 | 47.65870 | 10.40209 | 34718 ft | 459 kts | 261° |
| 2026-05-05 12:26 | 47.65603 | 10.35469 | 34405 ft | 460 kts | 261° |
| 2026-05-05 12:27 | 47.65335 | 10.30749 | 34092 ft | 459 kts | 261° |
| 2026-05-05 12:27 | 47.65066 | 10.26037 | 33779 ft | 456 kts | 261° |
| 2026-05-05 12:27 | 47.64795 | 10.21342 | 33422 ft | 455 kts | 261° |
| 2026-05-05 12:27 | 47.64528 | 10.16738 | 33071 ft | 453 kts | 261° |
| 2026-05-05 12:28 | 47.64256 | 10.12083 | 32721 ft | 452 kts | 261° |
| 2026-05-05 12:28 | 47.63981 | 10.07441 | 32399 ft | 452 kts | 261° |
| 2026-05-05 12:28 | 47.63706 | 10.02818 | 32060 ft | 451 kts | 261° |
| 2026-05-05 12:28 | 47.63428 | 9.98173 | 31731 ft | 450 kts | 261° |
| 2026-05-05 12:29 | 47.63151 | 9.93540 | 31394 ft | 449 kts | 260° |
| 2026-05-05 12:29 | 47.62873 | 9.88928 | 31071 ft | 447 kts | 260° |
| 2026-05-05 12:29 | 47.62594 | 9.84343 | 30749 ft | 446 kts | 260° |
| 2026-05-05 12:29 | 47.62317 | 9.79823 | 30052 ft | 448 kts | 260° |
| 2026-05-05 12:30 | 47.62028 | 9.75186 | 28847 ft | 456 kts | 260° |
| 2026-05-05 12:30 | 47.61734 | 9.70487 | 27872 ft | 457 kts | 261° |
| 2026-05-05 12:30 | 47.61443 | 9.65818 | 27156 ft | 453 kts | 261° |
| 2026-05-05 12:30 | 47.61153 | 9.61173 | 26417 ft | 449 kts | 261° |
| 2026-05-05 12:31 | 47.60863 | 9.56588 | 25816 ft | 442 kts | 261° |
| 2026-05-05 12:31 | 47.60577 | 9.52078 | 25125 ft | 437 kts | 261° |
| 2026-05-05 12:31 | 47.60290 | 9.47607 | 24400 ft | 433 kts | 261° |
| 2026-05-05 12:31 | 47.60005 | 9.43185 | 23735 ft | 429 kts | 261° |
| 2026-05-05 12:32 | 47.59720 | 9.38807 | 23018 ft | 424 kts | 261° |
| 2026-05-05 12:32 | 47.59442 | 9.34550 | 22359 ft | 418 kts | 261° |
| 2026-05-05 12:32 | 47.59162 | 9.30292 | 21208 ft | 416 kts | 261° |
| 2026-05-05 12:32 | 47.58874 | 9.25984 | 19731 ft | 425 kts | 262° |
| 2026-05-05 12:33 | 47.58579 | 9.21587 | 18515 ft | 428 kts | 262° |
| 2026-05-05 12:33 | 47.58291 | 9.17238 | 17427 ft | 420 kts | 262° |
| 2026-05-05 12:33 | 47.58007 | 9.12987 | 16345 ft | 411 kts | 262° |
| 2026-05-05 12:33 | 47.57726 | 9.08820 | 15269 ft | 403 kts | 262° |
| 2026-05-05 12:34 | 47.57488 | 9.04725 | 14198 ft | 396 kts | 267° |
| 2026-05-05 12:34 | 47.57592 | 9.00681 | 13071 ft | 391 kts | 275° |
| 2026-05-05 12:34 | 47.57937 | 8.96696 | 11887 ft | 387 kts | 275° |
| 2026-05-05 12:34 | 47.58267 | 8.92771 | 10726 ft | 382 kts | 274° |
| 2026-05-05 12:35 | 47.58580 | 8.88886 | 9603 ft | 378 kts | 274° |
| 2026-05-05 12:35 | 47.58879 | 8.85109 | 9110 ft | 357 kts | 274° |
| 2026-05-05 12:35 | 47.59160 | 8.81579 | 8838 ft | 333 kts | 274° |
| 2026-05-05 12:35 | 47.59430 | 8.78300 | 8629 ft | 311 kts | 274° |
| 2026-05-05 12:36 | 47.59809 | 8.75247 | 8369 ft | 295 kts | 287° |
| 2026-05-05 12:36 | 47.60654 | 8.72546 | 8111 ft | 284 kts | 293° |
| 2026-05-05 12:36 | 47.61538 | 8.69960 | 7907 ft | 278 kts | 293° |
| 2026-05-05 12:36 | 47.62403 | 8.67418 | 7695 ft | 274 kts | 293° |
| 2026-05-05 12:37 | 47.63260 | 8.64880 | 7301 ft | 274 kts | 293° |
| 2026-05-05 12:37 | 47.64098 | 8.62386 | 6969 ft | 274 kts | 293° |
| 2026-05-05 12:37 | 47.64938 | 8.59861 | 6669 ft | 272 kts | 293° |
| 2026-05-05 12:37 | 47.65648 | 8.57279 | 6373 ft | 268 kts | 284° |
| 2026-05-05 12:38 | 47.65956 | 8.55683 | 6183 ft | 267 kts | 283° |
| 2026-05-05 12:38 | 47.66316 | 8.53784 | 5939 ft | 265 kts | 283° |
| 2026-05-05 12:38 | 47.66806 | 8.51183 | 5768 ft | 253 kts | 283° |
| 2026-05-05 12:38 | 47.67266 | 8.48746 | 5616 ft | 238 kts | 283° |
| 2026-05-05 12:39 | 47.67704 | 8.46443 | 5425 ft | 230 kts | 283° |
| 2026-05-05 12:39 | 47.67878 | 8.44119 | 5090 ft | 226 kts | 258° |
| 2026-05-05 12:39 | 47.67197 | 8.42061 | 4916 ft | 226 kts | 227° |
| 2026-05-05 12:39 | 47.66037 | 8.40466 | 4741 ft | 228 kts | 223° |
| 2026-05-05 12:40 | 47.64883 | 8.38909 | 4536 ft | 222 kts | 223° |
| 2026-05-05 12:40 | 47.63537 | 8.37766 | 4336 ft | 227 kts | 195° |
| 2026-05-05 12:40 | 47.61957 | 8.37807 | 4138 ft | 230 kts | 173° |
| 2026-05-05 12:40 | 47.60388 | 8.38244 | 3991 ft | 227 kts | 166° |
| 2026-05-05 12:41 | 47.58957 | 8.39231 | 3989 ft | 233 kts | 149° |
| 2026-05-05 12:41 | 47.57699 | 8.40686 | 3979 ft | 220 kts | 142° |
| 2026-05-05 12:41 | 47.56642 | 8.42112 | 3727 ft | 195 kts | 139° |
| 2026-05-05 12:41 | 47.55687 | 8.43414 | 3436 ft | 181 kts | 140° |
| 2026-05-05 12:42 | 47.54788 | 8.44645 | 3215 ft | 169 kts | 140° |
| 2026-05-05 12:42 | 47.53977 | 8.45750 | 2978 ft | 151 kts | 140° |
| 2026-05-05 12:42 | 47.53209 | 8.46803 | 2790 ft | 151 kts | 140° |
| 2026-05-05 12:42 | 47.52430 | 8.47849 | 2553 ft | 151 kts | 141° |
| 2026-05-05 12:43 | 47.51658 | 8.48885 | 2333 ft | 149 kts | 141° |
| 2026-05-05 12:43 | 47.50903 | 8.49918 | 2132 ft | 146 kts | 138° |
| 2026-05-05 12:43 | 47.50154 | 8.50939 | 1950 ft | 148 kts | 138° |
| 2026-05-05 12:43 | 47.49400 | 8.51980 | 1791 ft | 148 kts | 137° |
| 2026-05-05 12:44 | 47.48650 | 8.53009 | 1584 ft | 146 kts | 137° |
| 2026-05-05 12:44 | 47.47862 | 8.54088 | 1637 ft | 167 kts | 138° |
| 2026-05-05 12:44 | 47.47016 | 8.55246 | 2537 ft | 166 kts | 139° |
| 2026-05-05 12:44 | 47.46162 | 8.56399 | 3462 ft | 168 kts | 141° |
| 2026-05-05 12:45 | 47.45268 | 8.57605 | 4038 ft | 182 kts | 140° |
| 2026-05-05 12:45 | 47.44290 | 8.58932 | 4390 ft | 198 kts | 140° |
| 2026-05-05 12:45 | 47.43251 | 8.60353 | 4657 ft | 208 kts | 140° |
| 2026-05-05 12:45 | 47.42482 | 8.61413 | 4909 ft | 209 kts | 140° |
| 2026-05-05 12:46 | 47.41883 | 8.62250 | 5097 ft | 209 kts | 137° |
| 2026-05-05 12:46 | 47.41379 | 8.63307 | 5286 ft | 214 kts | 116° |
| 2026-05-05 12:47 | 47.41158 | 8.64749 | 5561 ft | 216 kts | 92° |
| 2026-05-05 12:47 | 47.41572 | 8.66881 | 5900 ft | 221 kts | 56° |
| 2026-05-05 12:47 | 47.42728 | 8.68314 | 6262 ft | 220 kts | 22° |
| 2026-05-05 12:47 | 47.44236 | 8.68637 | 6428 ft | 225 kts | 348° |
| 2026-05-05 12:48 | 47.45736 | 8.67894 | 6548 ft | 237 kts | 334° |
| 2026-05-05 12:48 | 47.47344 | 8.66866 | 6812 ft | 265 kts | 333° |
| 2026-05-05 12:48 | 47.49096 | 8.65747 | 6965 ft | 281 kts | 334° |
| 2026-05-05 12:48 | 47.50918 | 8.64630 | 7000 ft | 284 kts | 335° |
| 2026-05-05 12:49 | 47.52750 | 8.63535 | 7002 ft | 284 kts | 335° |
| 2026-05-05 12:49 | 47.54592 | 8.62443 | 7001 ft | 285 kts | 335° |
| 2026-05-05 12:49 | 47.56421 | 8.61354 | 6999 ft | 284 kts | 334° |
| 2026-05-05 12:49 | 47.58147 | 8.59968 | 6998 ft | 280 kts | 322° |
| 2026-05-05 12:50 | 47.59629 | 8.58124 | 6998 ft | 277 kts | 313° |
| 2026-05-05 12:50 | 47.61025 | 8.56159 | 6867 ft | 277 kts | 314° |
| 2026-05-05 12:50 | 47.62435 | 8.54230 | 6672 ft | 274 kts | 314° |
| 2026-05-05 12:50 | 47.63843 | 8.52318 | 6262 ft | 274 kts | 314° |
| 2026-05-05 12:51 | 47.65244 | 8.50411 | 5949 ft | 272 kts | 314° |
| 2026-05-05 12:51 | 47.66627 | 8.48522 | 5603 ft | 269 kts | 314° |
| 2026-05-05 12:51 | 47.67970 | 8.46683 | 5466 ft | 254 kts | 314° |
| 2026-05-05 12:51 | 47.69089 | 8.44798 | 5325 ft | 236 kts | 294° |
| 2026-05-05 12:52 | 47.69407 | 8.43280 | 5244 ft | 223 kts | 273° |
| 2026-05-05 12:52 | 47.69127 | 8.41124 | 5177 ft | 209 kts | 239° |
| 2026-05-05 12:52 | 47.68185 | 8.39570 | 5091 ft | 198 kts | 223° |
| 2026-05-05 12:52 | 47.67177 | 8.38337 | 4945 ft | 181 kts | 218° |
| 2026-05-05 12:53 | 47.66157 | 8.37205 | 4312 ft | 184 kts | 218° |
| 2026-05-05 12:53 | 47.65112 | 8.36057 | 4043 ft | 189 kts | 218° |
| 2026-05-05 12:53 | 47.64052 | 8.34909 | 3996 ft | 189 kts | 212° |
| 2026-05-05 12:53 | 47.62781 | 8.34614 | 3997 ft | 197 kts | 168° |
| 2026-05-05 12:54 | 47.60470 | 8.36863 | 3993 ft | 202 kts | 141° |
| 2026-05-05 12:54 | 47.59449 | 8.38279 | 4011 ft | 201 kts | 140° |
| 2026-05-05 12:54 | 47.58401 | 8.39702 | 3988 ft | 202 kts | 140° |
| 2026-05-05 12:55 | 47.57417 | 8.41055 | 3908 ft | 186 kts | 140° |
| 2026-05-05 12:55 | 47.56489 | 8.42318 | 3636 ft | 176 kts | 140° |
| 2026-05-05 12:55 | 47.55600 | 8.43534 | 3410 ft | 172 kts | 140° |
| 2026-05-05 12:55 | 47.54718 | 8.44737 | 3186 ft | 173 kts | 140° |
| 2026-05-05 12:56 | 47.53876 | 8.45887 | 2956 ft | 157 kts | 140° |
| 2026-05-05 12:56 | 47.53085 | 8.46961 | 2771 ft | 152 kts | 140° |
| 2026-05-05 12:56 | 47.52310 | 8.48019 | 2547 ft | 151 kts | 141° |
| 2026-05-05 12:56 | 47.51539 | 8.49073 | 2349 ft | 149 kts | 140° |
| 2026-05-05 12:57 | 47.50779 | 8.50102 | 2121 ft | 147 kts | 139° |
| 2026-05-05 12:57 | 47.50028 | 8.51116 | 1944 ft | 146 kts | 138° |
| 2026-05-05 12:57 | 47.49292 | 8.52119 | 1750 ft | 143 kts | 137° |
| 2026-05-05 12:57 | 47.48569 | 8.53116 | 1549 ft | 142 kts | 137° |
| 2026-05-05 12:58 | 47.47847 | 8.54106 | 1416 ft | 135 kts | 137° |
| 2026-05-05 12:58 | 47.47277 | 8.54877 | 1397 ft | 91 kts | 137° |
| 2026-05-05 12:58 | 47.46885 | 8.55416 | 1407 ft | 63 kts | 137° |
| 2026-05-05 12:58 | 47.46638 | 8.55752 | 1410 ft | 32 kts | 137° |
| 2026-05-05 12:59 | 47.46509 | 8.55897 | 1410 ft | 21 kts | 155° |
| 2026-05-05 12:59 | 47.46380 | 8.55956 | 1411 ft | 12 kts | 166° |
| 2026-05-05 12:59 | 47.46307 | 8.55981 | 1414 ft | 12 kts | 167° |
| 2026-05-05 13:00 | 47.46122 | 8.55993 | 1418 ft | 15 kts | 184° |
| 2026-05-05 13:00 | 47.46047 | 8.55983 | 1415 ft | 11 kts | 186° |
| 2026-05-05 13:01 | 47.45946 | 8.55782 | 1409 ft | 15 kts | 276° |
| 2026-05-05 13:01 | 47.45958 | 8.55607 | 1406 ft | 19 kts | 276° |
| 2026-05-05 13:01 | 47.45972 | 8.55400 | 1405 ft | 17 kts | 276° |
| 2026-05-05 13:01 | 47.45986 | 8.55210 | 1400 ft | 21 kts | 276° |
| 2026-05-05 13:02 | 47.46001 | 8.55008 | 1399 ft | 18 kts | 285° |
| 2026-05-05 13:02 | 47.46081 | 8.54897 | 1399 ft | 16 kts | 334° |
| 2026-05-05 13:02 | 47.46176 | 8.54831 | 1398 ft | 14 kts | 335° |
| 2026-05-05 13:02 | 47.46238 | 8.54788 | 1402 ft | 7 kts | 340° |
| 2026-05-05 13:03 | 47.46285 | 8.54787 | 1399 ft | 6 kts | 26° |
| 2026-05-05 13:03 | 47.46300 | 8.54810 | 1404 ft | 2 kts | 78° |
| 2026-05-05 13:03 | 47.46301 | 8.54839 | 1395 ft | 5 kts | 92° |
| 2026-05-05 13:03 | 47.46298 | 8.54888 | 1398 ft | 5 kts | 96° |
| 2026-05-05 13:04 | 47.46294 | 8.54947 | 1403 ft | 6 kts | 96° |
| 2026-05-05 13:04 | 47.46290 | 8.55005 | 1401 ft | 5 kts | 102° |
| 2026-05-05 13:04 | 47.46278 | 8.55039 | 1402 ft | 3 kts | 137° |
| 2026-05-05 13:04 | 47.46258 | 8.55057 | 1405 ft | 4 kts | 155° |
| 2026-05-05 13:05 | 47.46235 | 8.55073 | 1407 ft | 4 kts | 154° |
| 2026-05-05 13:05 | 47.46212 | 8.55089 | 1403 ft | 3 kts | 155° |
| 2026-05-05 13:05 | 47.46200 | 8.55097 | 1403 ft | 1 kts | 155° |
| 2026-05-05 13:05 | 47.46199 | 8.55098 | 1402 ft | 0 kts | 155° |